sensor_id;sensor_type;location;lat;lon;timestamp;P1;durP1;ratioP1;P2;durP2;ratioP2
16673;SDS011;8450;52.654;10.326;2023-11-21T00:01:39;28.23;;;10.23;;
16673;SDS011;8450;52.654;10.326;2023-11-21T00:04:05;35.80;;;11.97;;
16673;SDS011;8450;52.654;10.326;2023-11-21T00:06:32;24.93;;;10.53;;
16673;SDS011;8450;52.654;10.326;2023-11-21T00:08:58;36.93;;;10.90;;
16673;SDS011;8450;52.654;10.326;2023-11-21T00:11:23;28.50;;;10.00;;
16673;SDS011;8450;52.654;10.326;2023-11-21T00:13:50;28.97;;;11.20;;
16673;SDS011;8450;52.654;10.326;2023-11-21T00:16:15;33.93;;;10.30;;
16673;SDS011;8450;52.654;10.326;2023-11-21T00:18:41;28.27;;;10.80;;
16673;SDS011;8450;52.654;10.326;2023-11-21T00:21:08;27.57;;;11.20;;
16673;SDS011;8450;52.654;10.326;2023-11-21T00:23:35;20.73;;;9.90;;
16673;SDS011;8450;52.654;10.326;2023-11-21T00:26:01;29.77;;;11.57;;
16673;SDS011;8450;52.654;10.326;2023-11-21T00:28:26;24.40;;;10.97;;
16673;SDS011;8450;52.654;10.326;2023-11-21T00:30:52;32.73;;;11.67;;
16673;SDS011;8450;52.654;10.326;2023-11-21T00:33:18;25.97;;;10.83;;
16673;SDS011;8450;52.654;10.326;2023-11-21T00:35:44;28.20;;;11.07;;
16673;SDS011;8450;52.654;10.326;2023-11-21T00:38:10;35.73;;;12.17;;
16673;SDS011;8450;52.654;10.326;2023-11-21T00:40:35;22.87;;;11.03;;
16673;SDS011;8450;52.654;10.326;2023-11-21T00:43:01;27.27;;;10.80;;
16673;SDS011;8450;52.654;10.326;2023-11-21T00:45:26;31.70;;;12.17;;
16673;SDS011;8450;52.654;10.326;2023-11-21T00:47:52;24.70;;;11.90;;
16673;SDS011;8450;52.654;10.326;2023-11-21T00:50:18;31.60;;;12.40;;
16673;SDS011;8450;52.654;10.326;2023-11-21T00:52:44;31.63;;;11.77;;
16673;SDS011;8450;52.654;10.326;2023-11-21T00:55:09;30.80;;;11.50;;
16673;SDS011;8450;52.654;10.326;2023-11-21T00:57:36;32.63;;;10.90;;
16673;SDS011;8450;52.654;10.326;2023-11-21T01:00:02;29.83;;;10.93;;
16673;SDS011;8450;52.654;10.326;2023-11-21T01:02:32;31.20;;;11.47;;
16673;SDS011;8450;52.654;10.326;2023-11-21T01:05:00;29.57;;;11.90;;
16673;SDS011;8450;52.654;10.326;2023-11-21T01:07:26;23.47;;;11.47;;
16673;SDS011;8450;52.654;10.326;2023-11-21T01:09:52;25.83;;;11.73;;
16673;SDS011;8450;52.654;10.326;2023-11-21T01:12:17;28.17;;;11.33;;
16673;SDS011;8450;52.654;10.326;2023-11-21T01:14:43;31.53;;;13.20;;
16673;SDS011;8450;52.654;10.326;2023-11-21T01:17:11;33.53;;;12.43;;
16673;SDS011;8450;52.654;10.326;2023-11-21T01:19:36;26.83;;;11.20;;
16673;SDS011;8450;52.654;10.326;2023-11-21T01:22:02;32.23;;;12.27;;
16673;SDS011;8450;52.654;10.326;2023-11-21T01:24:28;28.23;;;12.03;;
16673;SDS011;8450;52.654;10.326;2023-11-21T01:26:54;31.17;;;12.87;;
16673;SDS011;8450;52.654;10.326;2023-11-21T01:29:20;32.77;;;11.87;;
16673;SDS011;8450;52.654;10.326;2023-11-21T01:31:45;33.30;;;11.90;;
16673;SDS011;8450;52.654;10.326;2023-11-21T01:34:12;28.27;;;11.73;;
16673;SDS011;8450;52.654;10.326;2023-11-21T01:36:37;21.70;;;11.47;;
16673;SDS011;8450;52.654;10.326;2023-11-21T01:39:04;29.83;;;13.10;;
16673;SDS011;8450;52.654;10.326;2023-11-21T01:41:33;28.37;;;11.57;;
16673;SDS011;8450;52.654;10.326;2023-11-21T01:44:01;26.23;;;11.53;;
16673;SDS011;8450;52.654;10.326;2023-11-21T01:46:27;26.37;;;12.33;;
16673;SDS011;8450;52.654;10.326;2023-11-21T01:48:54;26.83;;;11.73;;
16673;SDS011;8450;52.654;10.326;2023-11-21T01:51:19;32.57;;;12.27;;
16673;SDS011;8450;52.654;10.326;2023-11-21T01:53:45;31.97;;;11.63;;
16673;SDS011;8450;52.654;10.326;2023-11-21T01:56:11;34.33;;;13.07;;
16673;SDS011;8450;52.654;10.326;2023-11-21T01:58:38;32.47;;;12.10;;
16673;SDS011;8450;52.654;10.326;2023-11-21T02:01:04;28.50;;;11.83;;
16673;SDS011;8450;52.654;10.326;2023-11-21T02:03:30;28.60;;;11.63;;
16673;SDS011;8450;52.654;10.326;2023-11-21T02:05:56;33.60;;;11.80;;
16673;SDS011;8450;52.654;10.326;2023-11-21T02:08:21;32.13;;;12.30;;
16673;SDS011;8450;52.654;10.326;2023-11-21T02:10:47;32.97;;;12.40;;
16673;SDS011;8450;52.654;10.326;2023-11-21T02:13:13;37.07;;;13.80;;
16673;SDS011;8450;52.654;10.326;2023-11-21T02:15:38;34.93;;;14.37;;
16673;SDS011;8450;52.654;10.326;2023-11-21T02:18:04;33.33;;;13.13;;
16673;SDS011;8450;52.654;10.326;2023-11-21T02:20:31;34.17;;;13.90;;
16673;SDS011;8450;52.654;10.326;2023-11-21T02:23:00;43.40;;;14.90;;
16673;SDS011;8450;52.654;10.326;2023-11-21T02:25:30;32.97;;;13.93;;
16673;SDS011;8450;52.654;10.326;2023-11-21T02:27:58;26.50;;;13.80;;
16673;SDS011;8450;52.654;10.326;2023-11-21T02:30:29;31.37;;;13.70;;
16673;SDS011;8450;52.654;10.326;2023-11-21T02:32:56;29.77;;;14.00;;
16673;SDS011;8450;52.654;10.326;2023-11-21T02:35:24;32.23;;;14.30;;
16673;SDS011;8450;52.654;10.326;2023-11-21T02:37:51;36.53;;;13.97;;
16673;SDS011;8450;52.654;10.326;2023-11-21T02:40:17;33.03;;;14.17;;
16673;SDS011;8450;52.654;10.326;2023-11-21T02:42:43;33.17;;;14.63;;
16673;SDS011;8450;52.654;10.326;2023-11-21T02:45:09;40.40;;;14.83;;
16673;SDS011;8450;52.654;10.326;2023-11-21T02:47:38;33.90;;;14.50;;
16673;SDS011;8450;52.654;10.326;2023-11-21T02:50:04;33.13;;;14.40;;
16673;SDS011;8450;52.654;10.326;2023-11-21T02:52:33;36.17;;;13.67;;
16673;SDS011;8450;52.654;10.326;2023-11-21T02:54:58;37.20;;;14.80;;
16673;SDS011;8450;52.654;10.326;2023-11-21T02:57:24;27.60;;;13.23;;
16673;SDS011;8450;52.654;10.326;2023-11-21T02:59:50;30.90;;;14.13;;
16673;SDS011;8450;52.654;10.326;2023-11-21T03:02:16;34.77;;;13.83;;
16673;SDS011;8450;52.654;10.326;2023-11-21T03:04:41;32.07;;;14.43;;
16673;SDS011;8450;52.654;10.326;2023-11-21T03:07:08;34.43;;;15.43;;
16673;SDS011;8450;52.654;10.326;2023-11-21T03:09:35;31.57;;;13.73;;
16673;SDS011;8450;52.654;10.326;2023-11-21T03:12:01;37.77;;;14.53;;
16673;SDS011;8450;52.654;10.326;2023-11-21T03:14:27;34.47;;;15.07;;
16673;SDS011;8450;52.654;10.326;2023-11-21T03:16:52;38.20;;;15.07;;
16673;SDS011;8450;52.654;10.326;2023-11-21T03:19:18;35.03;;;14.00;;
16673;SDS011;8450;52.654;10.326;2023-11-21T03:21:43;36.73;;;14.90;;
16673;SDS011;8450;52.654;10.326;2023-11-21T03:24:09;32.53;;;13.53;;
16673;SDS011;8450;52.654;10.326;2023-11-21T03:26:35;31.77;;;14.03;;
16673;SDS011;8450;52.654;10.326;2023-11-21T03:29:00;30.77;;;14.03;;
16673;SDS011;8450;52.654;10.326;2023-11-21T03:31:26;28.70;;;13.00;;
16673;SDS011;8450;52.654;10.326;2023-11-21T03:33:51;30.87;;;13.13;;
16673;SDS011;8450;52.654;10.326;2023-11-21T03:36:19;28.43;;;12.77;;
16673;SDS011;8450;52.654;10.326;2023-11-21T03:38:45;34.87;;;13.50;;
16673;SDS011;8450;52.654;10.326;2023-11-21T03:41:10;29.37;;;12.97;;
16673;SDS011;8450;52.654;10.326;2023-11-21T03:43:36;25.43;;;12.57;;
16673;SDS011;8450;52.654;10.326;2023-11-21T03:46:02;25.87;;;13.17;;
16673;SDS011;8450;52.654;10.326;2023-11-21T03:48:28;33.70;;;14.40;;
16673;SDS011;8450;52.654;10.326;2023-11-21T03:50:54;26.03;;;13.27;;
16673;SDS011;8450;52.654;10.326;2023-11-21T03:53:20;28.50;;;13.47;;
16673;SDS011;8450;52.654;10.326;2023-11-21T03:55:45;33.07;;;13.67;;
16673;SDS011;8450;52.654;10.326;2023-11-21T03:58:11;30.03;;;13.63;;
16673;SDS011;8450;52.654;10.326;2023-11-21T04:00:37;30.47;;;12.93;;
16673;SDS011;8450;52.654;10.326;2023-11-21T04:03:03;30.93;;;13.13;;
16673;SDS011;8450;52.654;10.326;2023-11-21T04:05:28;24.50;;;12.23;;
16673;SDS011;8450;52.654;10.326;2023-11-21T04:07:54;24.10;;;10.93;;
16673;SDS011;8450;52.654;10.326;2023-11-21T04:10:19;18.27;;;8.97;;
16673;SDS011;8450;52.654;10.326;2023-11-21T04:12:45;13.87;;;6.90;;
16673;SDS011;8450;52.654;10.326;2023-11-21T04:15:11;11.37;;;6.33;;
16673;SDS011;8450;52.654;10.326;2023-11-21T04:17:38;8.53;;;5.33;;
16673;SDS011;8450;52.654;10.326;2023-11-21T04:20:04;10.03;;;4.83;;
16673;SDS011;8450;52.654;10.326;2023-11-21T04:22:34;7.93;;;4.53;;
16673;SDS011;8450;52.654;10.326;2023-11-21T04:25:06;8.33;;;4.53;;
16673;SDS011;8450;52.654;10.326;2023-11-21T04:27:41;7.30;;;4.00;;
16673;SDS011;8450;52.654;10.326;2023-11-21T04:30:10;6.57;;;4.67;;
16673;SDS011;8450;52.654;10.326;2023-11-21T04:32:37;6.13;;;3.20;;
16673;SDS011;8450;52.654;10.326;2023-11-21T04:35:02;5.67;;;4.00;;
16673;SDS011;8450;52.654;10.326;2023-11-21T04:37:29;6.67;;;4.17;;
16673;SDS011;8450;52.654;10.326;2023-11-21T04:39:54;6.23;;;4.20;;
16673;SDS011;8450;52.654;10.326;2023-11-21T04:42:20;5.67;;;3.87;;
16673;SDS011;8450;52.654;10.326;2023-11-21T04:44:45;5.67;;;3.83;;
16673;SDS011;8450;52.654;10.326;2023-11-21T04:47:11;6.80;;;4.30;;
16673;SDS011;8450;52.654;10.326;2023-11-21T04:49:37;7.03;;;4.63;;
16673;SDS011;8450;52.654;10.326;2023-11-21T04:52:02;6.30;;;4.23;;
16673;SDS011;8450;52.654;10.326;2023-11-21T04:54:30;7.43;;;4.13;;
16673;SDS011;8450;52.654;10.326;2023-11-21T04:56:56;9.37;;;5.57;;
16673;SDS011;8450;52.654;10.326;2023-11-21T04:59:22;10.10;;;6.30;;
16673;SDS011;8450;52.654;10.326;2023-11-21T05:01:50;10.73;;;7.30;;
16673;SDS011;8450;52.654;10.326;2023-11-21T05:04:15;12.20;;;7.40;;
16673;SDS011;8450;52.654;10.326;2023-11-21T05:06:41;10.47;;;7.43;;
16673;SDS011;8450;52.654;10.326;2023-11-21T05:09:07;11.70;;;8.43;;
16673;SDS011;8450;52.654;10.326;2023-11-21T05:11:36;12.17;;;8.57;;
16673;SDS011;8450;52.654;10.326;2023-11-21T05:14:03;12.00;;;8.87;;
16673;SDS011;8450;52.654;10.326;2023-11-21T05:16:30;10.17;;;7.10;;
16673;SDS011;8450;52.654;10.326;2023-11-21T05:18:56;9.73;;;6.27;;
16673;SDS011;8450;52.654;10.326;2023-11-21T05:21:25;8.60;;;6.10;;
16673;SDS011;8450;52.654;10.326;2023-11-21T05:23:51;6.90;;;5.10;;
16673;SDS011;8450;52.654;10.326;2023-11-21T05:26:17;9.73;;;6.70;;
16673;SDS011;8450;52.654;10.326;2023-11-21T05:28:43;7.93;;;5.63;;
16673;SDS011;8450;52.654;10.326;2023-11-21T05:31:08;9.80;;;6.33;;
16673;SDS011;8450;52.654;10.326;2023-11-21T05:33:35;12.27;;;8.40;;
16673;SDS011;8450;52.654;10.326;2023-11-21T05:36:01;13.40;;;8.93;;
16673;SDS011;8450;52.654;10.326;2023-11-21T05:38:27;10.63;;;8.23;;
16673;SDS011;8450;52.654;10.326;2023-11-21T05:40:52;11.87;;;9.13;;
16673;SDS011;8450;52.654;10.326;2023-11-21T05:43:18;13.23;;;8.67;;
16673;SDS011;8450;52.654;10.326;2023-11-21T05:45:43;12.63;;;8.73;;
16673;SDS011;8450;52.654;10.326;2023-11-21T05:48:09;14.97;;;9.37;;
16673;SDS011;8450;52.654;10.326;2023-11-21T05:50:35;17.37;;;9.93;;
16673;SDS011;8450;52.654;10.326;2023-11-21T05:53:02;14.10;;;8.83;;
16673;SDS011;8450;52.654;10.326;2023-11-21T05:55:28;13.07;;;9.50;;
16673;SDS011;8450;52.654;10.326;2023-11-21T05:57:54;17.90;;;9.83;;
16673;SDS011;8450;52.654;10.326;2023-11-21T06:00:19;11.70;;;8.73;;
16673;SDS011;8450;52.654;10.326;2023-11-21T06:02:47;12.93;;;9.47;;
16673;SDS011;8450;52.654;10.326;2023-11-21T06:05:15;14.93;;;9.77;;
16673;SDS011;8450;52.654;10.326;2023-11-21T06:07:42;17.63;;;10.07;;
16673;SDS011;8450;52.654;10.326;2023-11-21T06:10:08;13.27;;;9.63;;
16673;SDS011;8450;52.654;10.326;2023-11-21T06:12:36;19.10;;;10.13;;
16673;SDS011;8450;52.654;10.326;2023-11-21T06:15:03;15.77;;;10.97;;
16673;SDS011;8450;52.654;10.326;2023-11-21T06:17:30;16.57;;;10.93;;
16673;SDS011;8450;52.654;10.326;2023-11-21T06:19:56;16.63;;;10.23;;
16673;SDS011;8450;52.654;10.326;2023-11-21T06:22:22;17.53;;;10.77;;
16673;SDS011;8450;52.654;10.326;2023-11-21T06:24:48;19.50;;;10.13;;
16673;SDS011;8450;52.654;10.326;2023-11-21T06:27:13;17.10;;;11.60;;
16673;SDS011;8450;52.654;10.326;2023-11-21T06:29:39;14.87;;;10.33;;
16673;SDS011;8450;52.654;10.326;2023-11-21T06:32:04;19.30;;;11.40;;
16673;SDS011;8450;52.654;10.326;2023-11-21T06:34:30;16.23;;;10.93;;
16673;SDS011;8450;52.654;10.326;2023-11-21T06:36:56;19.23;;;11.90;;
16673;SDS011;8450;52.654;10.326;2023-11-21T06:39:22;18.63;;;12.37;;
16673;SDS011;8450;52.654;10.326;2023-11-21T06:41:50;20.07;;;12.47;;
16673;SDS011;8450;52.654;10.326;2023-11-21T06:44:16;15.17;;;9.67;;
16673;SDS011;8450;52.654;10.326;2023-11-21T06:46:41;17.57;;;12.23;;
16673;SDS011;8450;52.654;10.326;2023-11-21T06:49:07;18.80;;;12.13;;
16673;SDS011;8450;52.654;10.326;2023-11-21T06:51:33;18.63;;;11.90;;
16673;SDS011;8450;52.654;10.326;2023-11-21T06:53:59;18.57;;;13.00;;
16673;SDS011;8450;52.654;10.326;2023-11-21T06:56:25;19.60;;;12.60;;
16673;SDS011;8450;52.654;10.326;2023-11-21T06:58:50;18.73;;;12.77;;
16673;SDS011;8450;52.654;10.326;2023-11-21T07:01:19;19.97;;;12.77;;
16673;SDS011;8450;52.654;10.326;2023-11-21T07:03:45;21.43;;;13.80;;
16673;SDS011;8450;52.654;10.326;2023-11-21T07:06:10;19.60;;;12.23;;
16673;SDS011;8450;52.654;10.326;2023-11-21T07:08:36;18.03;;;12.30;;
16673;SDS011;8450;52.654;10.326;2023-11-21T07:11:03;18.73;;;12.67;;
16673;SDS011;8450;52.654;10.326;2023-11-21T07:13:29;22.07;;;12.97;;
16673;SDS011;8450;52.654;10.326;2023-11-21T07:15:55;23.10;;;12.70;;
16673;SDS011;8450;52.654;10.326;2023-11-21T07:18:21;15.60;;;11.10;;
16673;SDS011;8450;52.654;10.326;2023-11-21T07:20:46;23.53;;;12.97;;
16673;SDS011;8450;52.654;10.326;2023-11-21T07:23:12;17.13;;;11.30;;
16673;SDS011;8450;52.654;10.326;2023-11-21T07:25:38;16.60;;;11.33;;
16673;SDS011;8450;52.654;10.326;2023-11-21T07:28:03;17.17;;;11.83;;
16673;SDS011;8450;52.654;10.326;2023-11-21T07:30:30;18.07;;;12.33;;
16673;SDS011;8450;52.654;10.326;2023-11-21T07:32:56;20.07;;;13.33;;
16673;SDS011;8450;52.654;10.326;2023-11-21T07:35:21;16.20;;;11.33;;
16673;SDS011;8450;52.654;10.326;2023-11-21T07:37:47;15.47;;;11.70;;
16673;SDS011;8450;52.654;10.326;2023-11-21T07:40:14;17.20;;;10.40;;
16673;SDS011;8450;52.654;10.326;2023-11-21T07:42:41;14.53;;;10.70;;
16673;SDS011;8450;52.654;10.326;2023-11-21T07:45:09;15.87;;;11.70;;
16673;SDS011;8450;52.654;10.326;2023-11-21T07:47:35;16.83;;;10.87;;
16673;SDS011;8450;52.654;10.326;2023-11-21T07:50:02;15.73;;;11.20;;
16673;SDS011;8450;52.654;10.326;2023-11-21T07:52:28;14.07;;;10.03;;
16673;SDS011;8450;52.654;10.326;2023-11-21T07:54:54;17.80;;;11.33;;
16673;SDS011;8450;52.654;10.326;2023-11-21T07:57:19;15.30;;;11.27;;
16673;SDS011;8450;52.654;10.326;2023-11-21T07:59:45;16.10;;;9.30;;
16673;SDS011;8450;52.654;10.326;2023-11-21T08:02:11;19.90;;;10.83;;
16673;SDS011;8450;52.654;10.326;2023-11-21T08:04:37;8.13;;;6.27;;
16673;SDS011;8450;52.654;10.326;2023-11-21T08:07:02;16.23;;;10.00;;
16673;SDS011;8450;52.654;10.326;2023-11-21T08:09:28;12.67;;;10.33;;
16673;SDS011;8450;52.654;10.326;2023-11-21T08:11:54;14.40;;;10.37;;
16673;SDS011;8450;52.654;10.326;2023-11-21T08:14:21;17.67;;;10.73;;
16673;SDS011;8450;52.654;10.326;2023-11-21T08:16:47;13.27;;;9.80;;
16673;SDS011;8450;52.654;10.326;2023-11-21T08:19:13;13.90;;;10.47;;
16673;SDS011;8450;52.654;10.326;2023-11-21T08:21:38;17.73;;;9.70;;
16673;SDS011;8450;52.654;10.326;2023-11-21T08:24:06;15.40;;;9.77;;
16673;SDS011;8450;52.654;10.326;2023-11-21T08:26:35;15.00;;;9.10;;
16673;SDS011;8450;52.654;10.326;2023-11-21T08:29:01;13.33;;;9.80;;
16673;SDS011;8450;52.654;10.326;2023-11-21T08:31:27;13.70;;;9.97;;
16673;SDS011;8450;52.654;10.326;2023-11-21T08:33:53;13.10;;;9.50;;
16673;SDS011;8450;52.654;10.326;2023-11-21T08:36:21;12.23;;;8.73;;
16673;SDS011;8450;52.654;10.326;2023-11-21T08:38:49;13.33;;;8.67;;
16673;SDS011;8450;52.654;10.326;2023-11-21T08:41:17;13.13;;;9.93;;
16673;SDS011;8450;52.654;10.326;2023-11-21T08:43:47;11.90;;;9.93;;
16673;SDS011;8450;52.654;10.326;2023-11-21T08:46:13;11.33;;;8.17;;
16673;SDS011;8450;52.654;10.326;2023-11-21T08:48:40;14.33;;;9.10;;
16673;SDS011;8450;52.654;10.326;2023-11-21T08:51:06;11.40;;;8.90;;
16673;SDS011;8450;52.654;10.326;2023-11-21T08:53:32;11.97;;;9.30;;
16673;SDS011;8450;52.654;10.326;2023-11-21T08:55:58;13.00;;;8.57;;
16673;SDS011;8450;52.654;10.326;2023-11-21T08:58:23;11.87;;;9.27;;
16673;SDS011;8450;52.654;10.326;2023-11-21T09:00:49;11.53;;;8.70;;
16673;SDS011;8450;52.654;10.326;2023-11-21T09:03:14;13.17;;;9.43;;
16673;SDS011;8450;52.654;10.326;2023-11-21T09:05:40;14.70;;;10.63;;
16673;SDS011;8450;52.654;10.326;2023-11-21T09:08:06;13.83;;;9.47;;
16673;SDS011;8450;52.654;10.326;2023-11-21T09:10:32;12.77;;;9.83;;
16673;SDS011;8450;52.654;10.326;2023-11-21T09:13:01;11.33;;;9.27;;
16673;SDS011;8450;52.654;10.326;2023-11-21T09:15:27;13.27;;;9.23;;
16673;SDS011;8450;52.654;10.326;2023-11-21T09:17:53;12.73;;;8.87;;
16673;SDS011;8450;52.654;10.326;2023-11-21T09:20:18;10.17;;;8.10;;
16673;SDS011;8450;52.654;10.326;2023-11-21T09:22:47;13.63;;;10.13;;
16673;SDS011;8450;52.654;10.326;2023-11-21T09:25:14;17.17;;;9.57;;
16673;SDS011;8450;52.654;10.326;2023-11-21T09:27:39;11.90;;;8.60;;
16673;SDS011;8450;52.654;10.326;2023-11-21T09:30:06;12.40;;;9.47;;
16673;SDS011;8450;52.654;10.326;2023-11-21T09:32:36;13.33;;;8.97;;
16673;SDS011;8450;52.654;10.326;2023-11-21T09:35:04;12.17;;;9.37;;
16673;SDS011;8450;52.654;10.326;2023-11-21T09:37:30;17.17;;;10.47;;
16673;SDS011;8450;52.654;10.326;2023-11-21T09:39:56;11.30;;;8.80;;
16673;SDS011;8450;52.654;10.326;2023-11-21T09:42:30;12.87;;;8.67;;
16673;SDS011;8450;52.654;10.326;2023-11-21T09:47:35;9.57;;;7.43;;
16673;SDS011;8450;52.654;10.326;2023-11-21T09:50:04;9.97;;;8.33;;
16673;SDS011;8450;52.654;10.326;2023-11-21T09:52:33;13.30;;;9.57;;
16673;SDS011;8450;52.654;10.326;2023-11-21T09:55:16;11.63;;;8.30;;
16673;SDS011;8450;52.654;10.326;2023-11-21T09:57:47;10.17;;;8.00;;
16673;SDS011;8450;52.654;10.326;2023-11-21T10:00:13;12.17;;;8.47;;
16673;SDS011;8450;52.654;10.326;2023-11-21T10:02:42;10.87;;;7.77;;
16673;SDS011;8450;52.654;10.326;2023-11-21T10:05:08;10.13;;;7.73;;
16673;SDS011;8450;52.654;10.326;2023-11-21T10:07:37;8.57;;;7.10;;
16673;SDS011;8450;52.654;10.326;2023-11-21T10:10:06;11.30;;;7.73;;
16673;SDS011;8450;52.654;10.326;2023-11-21T10:12:34;10.40;;;7.37;;
16673;SDS011;8450;52.654;10.326;2023-11-21T10:15:00;9.40;;;7.40;;
16673;SDS011;8450;52.654;10.326;2023-11-21T10:17:31;8.47;;;6.73;;
16673;SDS011;8450;52.654;10.326;2023-11-21T10:20:08;9.40;;;7.50;;
16673;SDS011;8450;52.654;10.326;2023-11-21T10:22:39;10.77;;;7.57;;
16673;SDS011;8450;52.654;10.326;2023-11-21T10:25:06;12.70;;;7.50;;
16673;SDS011;8450;52.654;10.326;2023-11-21T10:27:36;10.37;;;7.17;;
16673;SDS011;8450;52.654;10.326;2023-11-21T10:30:04;8.20;;;6.37;;
16673;SDS011;8450;52.654;10.326;2023-11-21T10:32:31;7.80;;;6.67;;
16673;SDS011;8450;52.654;10.326;2023-11-21T10:34:57;10.80;;;7.40;;
16673;SDS011;8450;52.654;10.326;2023-11-21T10:37:25;11.90;;;7.33;;
16673;SDS011;8450;52.654;10.326;2023-11-21T10:39:56;8.80;;;6.67;;
16673;SDS011;8450;52.654;10.326;2023-11-21T10:42:25;9.27;;;6.40;;
16673;SDS011;8450;52.654;10.326;2023-11-21T10:44:52;8.23;;;6.87;;
16673;SDS011;8450;52.654;10.326;2023-11-21T10:47:18;8.30;;;6.80;;
16673;SDS011;8450;52.654;10.326;2023-11-21T10:49:45;8.93;;;7.13;;
16673;SDS011;8450;52.654;10.326;2023-11-21T10:52:13;10.40;;;6.90;;
16673;SDS011;8450;52.654;10.326;2023-11-21T10:54:42;10.80;;;7.67;;
16673;SDS011;8450;52.654;10.326;2023-11-21T10:57:08;8.47;;;7.60;;
16673;SDS011;8450;52.654;10.326;2023-11-21T10:59:35;11.80;;;7.47;;
16673;SDS011;8450;52.654;10.326;2023-11-21T11:02:01;8.87;;;6.77;;
16673;SDS011;8450;52.654;10.326;2023-11-21T11:04:39;7.93;;;6.97;;
16673;SDS011;8450;52.654;10.326;2023-11-21T11:07:05;9.00;;;6.90;;
16673;SDS011;8450;52.654;10.326;2023-11-21T11:09:34;11.33;;;8.20;;
16673;SDS011;8450;52.654;10.326;2023-11-21T11:12:03;10.67;;;6.33;;
16673;SDS011;8450;52.654;10.326;2023-11-21T11:14:29;8.10;;;6.50;;
16673;SDS011;8450;52.654;10.326;2023-11-21T11:16:57;8.60;;;6.97;;
16673;SDS011;8450;52.654;10.326;2023-11-21T11:19:25;11.37;;;6.87;;
16673;SDS011;8450;52.654;10.326;2023-11-21T11:28:00;7.83;;;5.20;;
16673;SDS011;8450;52.654;10.326;2023-11-21T11:33:48;5.83;;;4.63;;
16673;SDS011;8450;52.654;10.326;2023-11-21T11:36:26;8.47;;;5.30;;
16673;SDS011;8450;52.654;10.326;2023-11-21T11:39:01;6.77;;;5.47;;
16673;SDS011;8450;52.654;10.326;2023-11-21T11:41:30;5.57;;;5.07;;
16673;SDS011;8450;52.654;10.326;2023-11-21T11:44:02;7.47;;;5.13;;
16673;SDS011;8450;52.654;10.326;2023-11-21T11:46:44;5.57;;;4.97;;
16673;SDS011;8450;52.654;10.326;2023-11-21T11:49:23;7.77;;;5.43;;
16673;SDS011;8450;52.654;10.326;2023-11-21T11:54:54;9.03;;;6.13;;
16673;SDS011;8450;52.654;10.326;2023-11-21T11:57:23;6.60;;;5.50;;
16673;SDS011;8450;52.654;10.326;2023-11-21T12:02:47;7.50;;;5.53;;
16673;SDS011;8450;52.654;10.326;2023-11-21T12:05:23;6.60;;;5.03;;
16673;SDS011;8450;52.654;10.326;2023-11-21T12:07:52;6.20;;;4.93;;
16673;SDS011;8450;52.654;10.326;2023-11-21T12:10:20;7.10;;;4.83;;
16673;SDS011;8450;52.654;10.326;2023-11-21T12:12:54;8.47;;;6.50;;
16673;SDS011;8450;52.654;10.326;2023-11-21T12:15:21;6.63;;;5.60;;
16673;SDS011;8450;52.654;10.326;2023-11-21T12:17:48;9.07;;;5.83;;
16673;SDS011;8450;52.654;10.326;2023-11-21T12:20:15;6.33;;;4.57;;
16673;SDS011;8450;52.654;10.326;2023-11-21T12:22:44;7.10;;;5.83;;
16673;SDS011;8450;52.654;10.326;2023-11-21T12:25:20;5.97;;;5.03;;
16673;SDS011;8450;52.654;10.326;2023-11-21T12:27:50;5.93;;;4.60;;
16673;SDS011;8450;52.654;10.326;2023-11-21T12:30:18;5.73;;;5.10;;
16673;SDS011;8450;52.654;10.326;2023-11-21T12:32:50;6.97;;;5.30;;
16673;SDS011;8450;52.654;10.326;2023-11-21T12:35:17;5.80;;;5.20;;
16673;SDS011;8450;52.654;10.326;2023-11-21T12:37:47;7.20;;;5.50;;
16673;SDS011;8450;52.654;10.326;2023-11-21T12:40:13;8.57;;;5.70;;
16673;SDS011;8450;52.654;10.326;2023-11-21T12:43:13;7.93;;;5.40;;
16673;SDS011;8450;52.654;10.326;2023-11-21T12:45:32;6.13;;;5.03;;
16673;SDS011;8450;52.654;10.326;2023-11-21T12:50:32;6.30;;;5.33;;
16673;SDS011;8450;52.654;10.326;2023-11-21T12:53:00;6.03;;;5.00;;
16673;SDS011;8450;52.654;10.326;2023-11-21T12:55:29;6.50;;;5.00;;
16673;SDS011;8450;52.654;10.326;2023-11-21T12:57:56;6.60;;;4.70;;
16673;SDS011;8450;52.654;10.326;2023-11-21T13:00:31;7.30;;;5.83;;
16673;SDS011;8450;52.654;10.326;2023-11-21T13:02:59;7.37;;;4.27;;
16673;SDS011;8450;52.654;10.326;2023-11-21T13:07:52;6.33;;;4.80;;
16673;SDS011;8450;52.654;10.326;2023-11-21T13:10:20;5.63;;;4.03;;
16673;SDS011;8450;52.654;10.326;2023-11-21T13:12:51;6.50;;;5.17;;
16673;SDS011;8450;52.654;10.326;2023-11-21T13:15:17;5.53;;;4.97;;
16673;SDS011;8450;52.654;10.326;2023-11-21T13:17:46;6.33;;;4.60;;
16673;SDS011;8450;52.654;10.326;2023-11-21T13:20:12;5.77;;;4.83;;
16673;SDS011;8450;52.654;10.326;2023-11-21T13:22:45;7.63;;;5.03;;
16673;SDS011;8450;52.654;10.326;2023-11-21T13:25:32;6.67;;;4.70;;
16673;SDS011;8450;52.654;10.326;2023-11-21T13:27:58;6.83;;;5.30;;
16673;SDS011;8450;52.654;10.326;2023-11-21T13:30:25;9.27;;;4.60;;
16673;SDS011;8450;52.654;10.326;2023-11-21T13:32:55;5.77;;;5.07;;
16673;SDS011;8450;52.654;10.326;2023-11-21T13:35:27;4.70;;;4.20;;
16673;SDS011;8450;52.654;10.326;2023-11-21T13:37:57;6.20;;;4.73;;
16673;SDS011;8450;52.654;10.326;2023-11-21T13:40:39;6.80;;;4.37;;
16673;SDS011;8450;52.654;10.326;2023-11-21T13:43:12;6.13;;;4.70;;
16673;SDS011;8450;52.654;10.326;2023-11-21T13:45:39;5.77;;;4.63;;
16673;SDS011;8450;52.654;10.326;2023-11-21T13:48:05;7.27;;;4.90;;
16673;SDS011;8450;52.654;10.326;2023-11-21T13:50:45;7.23;;;4.93;;
16673;SDS011;8450;52.654;10.326;2023-11-21T13:53:23;6.67;;;4.70;;
16673;SDS011;8450;52.654;10.326;2023-11-21T13:55:53;5.80;;;4.20;;
16673;SDS011;8450;52.654;10.326;2023-11-21T13:58:22;6.97;;;5.90;;
16673;SDS011;8450;52.654;10.326;2023-11-21T14:00:57;5.57;;;4.83;;
16673;SDS011;8450;52.654;10.326;2023-11-21T14:03:23;6.07;;;5.23;;
16673;SDS011;8450;52.654;10.326;2023-11-21T14:05:57;5.97;;;4.97;;
16673;SDS011;8450;52.654;10.326;2023-11-21T14:08:25;7.33;;;6.30;;
16673;SDS011;8450;52.654;10.326;2023-11-21T14:10:57;6.13;;;5.10;;
16673;SDS011;8450;52.654;10.326;2023-11-21T14:13:24;5.83;;;4.53;;
16673;SDS011;8450;52.654;10.326;2023-11-21T14:15:50;5.33;;;4.80;;
16673;SDS011;8450;52.654;10.326;2023-11-21T14:18:22;5.90;;;4.53;;
16673;SDS011;8450;52.654;10.326;2023-11-21T14:20:55;7.17;;;4.70;;
16673;SDS011;8450;52.654;10.326;2023-11-21T14:23:21;7.97;;;5.00;;
16673;SDS011;8450;52.654;10.326;2023-11-21T14:25:48;6.60;;;4.20;;
16673;SDS011;8450;52.654;10.326;2023-11-21T14:28:15;7.90;;;4.60;;
16673;SDS011;8450;52.654;10.326;2023-11-21T14:30:40;5.50;;;4.37;;
16673;SDS011;8450;52.654;10.326;2023-11-21T14:33:07;5.43;;;4.30;;
16673;SDS011;8450;52.654;10.326;2023-11-21T14:35:34;4.57;;;4.17;;
16673;SDS011;8450;52.654;10.326;2023-11-21T14:38:00;5.60;;;4.67;;
16673;SDS011;8450;52.654;10.326;2023-11-21T14:40:27;6.70;;;6.07;;
16673;SDS011;8450;52.654;10.326;2023-11-21T14:42:58;9.57;;;5.73;;
16673;SDS011;8450;52.654;10.326;2023-11-21T14:45:24;8.53;;;5.27;;
16673;SDS011;8450;52.654;10.326;2023-11-21T14:47:51;8.43;;;7.50;;
16673;SDS011;8450;52.654;10.326;2023-11-21T14:50:36;5.67;;;4.37;;
16673;SDS011;8450;52.654;10.326;2023-11-21T14:53:10;6.07;;;4.83;;
16673;SDS011;8450;52.654;10.326;2023-11-21T14:55:38;4.77;;;4.30;;
16673;SDS011;8450;52.654;10.326;2023-11-21T14:58:04;7.50;;;4.50;;